createdAt,value
2022-10-13T00:01:12.613Z,28.33
2022-10-13T00:04:14.994Z,28.12
2022-10-13T00:07:17.041Z,26.60
2022-10-13T00:10:19.398Z,27.25
2022-10-13T00:13:21.461Z,25.48
2022-10-13T00:16:24.624Z,23.17
2022-10-13T00:19:27.748Z,24.27
2022-10-13T00:22:30.178Z,21.95
2022-10-13T00:25:32.255Z,24.25
2022-10-13T00:28:35.177Z,24.42
2022-10-13T00:31:37.292Z,25.90
2022-10-13T00:34:39.848Z,27.40
2022-10-13T00:37:41.950Z,26.25
2022-10-13T00:40:56.151Z,31.17
2022-10-13T00:44:04.988Z,22.80
2022-10-13T00:47:07.428Z,23.55
2022-10-13T00:50:14.721Z,24.30
2022-10-13T00:53:20.027Z,21.62
2022-10-13T00:56:24.379Z,22.10
2022-10-13T00:59:29.168Z,23.25
2022-10-13T01:02:34.774Z,22.52
2022-10-13T01:05:39.428Z,24.70
2022-10-13T01:08:41.604Z,27.13
2022-10-13T01:12:01.120Z,25.17
2022-10-13T01:15:22.783Z,24.02
2022-10-13T01:18:38.738Z,24.60
2022-10-13T01:21:48.959Z,23.17
2022-10-13T01:25:18.612Z,23.45
2022-10-13T01:28:35.527Z,26.65
2022-10-13T01:31:42.123Z,28.70
2022-10-13T01:34:50.502Z,24.40
2022-10-13T01:38:09.310Z,25.67
2022-10-13T01:41:25.958Z,25.98
2022-10-13T01:44:41.034Z,23.05
2022-10-13T01:47:44.104Z,25.62
2022-10-13T01:50:47.695Z,23.15
2022-10-13T01:53:50.274Z,24.05
2022-10-13T01:56:56.397Z,23.77
2022-10-13T02:00:01.818Z,23.62
2022-10-13T02:03:45.956Z,22.75
2022-10-13T02:06:57.796Z,24.15
2022-10-13T02:10:11.818Z,22.67
2022-10-13T02:13:17.614Z,22.73
2022-10-13T02:16:23.453Z,25.08
2022-10-13T02:19:27.627Z,24.70
2022-10-13T02:22:37.212Z,28.25
2022-10-13T02:25:40.315Z,21.87
2022-10-13T02:28:42.584Z,22.42
2022-10-13T02:31:46.443Z,21.23
2022-10-13T02:34:49.152Z,24.95
2022-10-13T02:37:51.488Z,20.73
2022-10-13T02:40:54.815Z,22.80
2022-10-13T02:43:57.466Z,24.98
2022-10-13T02:47:00.851Z,22.65
2022-10-13T02:50:03.854Z,22.98
2022-10-13T02:53:05.974Z,21.62
2022-10-13T02:56:08.345Z,22.95
2022-10-13T02:59:12.326Z,21.73
2022-10-13T03:02:14.788Z,26.25
2022-10-13T03:05:17.226Z,24.92
2022-10-13T03:08:19.562Z,20.75
2022-10-13T03:11:22.215Z,23.60
2022-10-13T03:14:24.631Z,21.23
2022-10-13T03:17:27.153Z,22.25
2022-10-13T03:20:29.513Z,21.02
2022-10-13T03:23:31.761Z,23.40
2022-10-13T03:26:35.127Z,24.58
2022-10-13T03:29:37.199Z,31.45
2022-10-13T03:32:40.644Z,38.70
2022-10-13T03:35:42.765Z,43.85
2022-10-13T03:38:45.168Z,39.83
2022-10-13T03:41:47.494Z,34.03
2022-10-13T03:44:55.198Z,32.80
2022-10-13T03:47:58.488Z,31.92
2022-10-13T03:51:05.400Z,26.65
2022-10-13T03:54:07.636Z,27.58
2022-10-13T03:57:09.956Z,24.52
2022-10-13T04:00:12.945Z,22.90
2022-10-13T04:03:15.495Z,27.10
2022-10-13T04:06:17.871Z,25.42
2022-10-13T04:09:19.929Z,25.40
2022-10-13T04:12:22.498Z,28.45
2022-10-13T04:15:24.798Z,22.25
2022-10-13T04:18:27.131Z,24.10
2022-10-13T04:21:31.558Z,23.77
2022-10-13T04:24:34.116Z,29.35
2022-10-13T04:27:39.533Z,24.27
2022-10-13T04:30:45.856Z,22.10
2022-10-13T04:33:51.681Z,24.00
2022-10-13T04:36:56.781Z,23.83
2022-10-13T04:39:58.848Z,25.73
2022-10-13T04:43:01.538Z,25.55
2022-10-13T04:46:07.386Z,28.05
2022-10-13T04:49:09.770Z,27.05
2022-10-13T04:52:13.561Z,25.42
2022-10-13T04:55:15.985Z,24.50
2022-10-13T04:58:18.721Z,22.70
2022-10-13T05:01:23.781Z,27.55
2022-10-13T05:04:25.846Z,23.70
2022-10-13T05:07:28.192Z,23.65
2022-10-13T05:10:34.618Z,25.02
2022-10-13T05:13:37.813Z,24.25
2022-10-13T05:16:39.899Z,22.58
2022-10-13T05:19:42.600Z,25.75
2022-10-13T05:22:44.950Z,25.33
2022-10-13T05:25:47.323Z,30.15
2022-10-13T05:28:50.040Z,25.90
2022-10-13T05:31:52.542Z,31.67
2022-10-13T05:34:54.635Z,24.75
2022-10-13T05:37:57.013Z,29.95
2022-10-13T05:41:17.485Z,37.53
2022-10-13T05:44:19.849Z,32.63
2022-10-13T05:47:28.488Z,31.23
2022-10-13T05:50:32.134Z,32.05
2022-10-13T05:53:38.168Z,33.40
2022-10-13T05:56:47.769Z,37.92
2022-10-13T05:59:57.658Z,36.15
2022-10-13T06:03:07.542Z,32.13
2022-10-13T06:06:10.828Z,30.17
2022-10-13T06:09:13.128Z,39.13
2022-10-13T06:12:16.863Z,31.75
2022-10-13T06:15:19.039Z,33.83
2022-10-13T06:18:21.424Z,28.73
2022-10-13T06:21:24.181Z,33.47
2022-10-13T06:24:26.546Z,29.20
2022-10-13T06:27:29.222Z,31.15
2022-10-13T06:30:32.377Z,31.62
2022-10-13T06:33:34.887Z,27.45
2022-10-13T06:36:37.986Z,27.85
2022-10-13T06:39:40.061Z,31.98
2022-10-13T06:42:42.414Z,28.05
2022-10-13T06:45:44.502Z,27.87
2022-10-13T06:48:51.174Z,32.10
2022-10-13T06:51:53.438Z,26.83
2022-10-13T06:54:55.748Z,32.83
2022-10-13T06:57:58.030Z,31.77
2022-10-13T07:01:00.445Z,30.52
2022-10-13T07:04:02.650Z,29.90
2022-10-13T07:07:04.971Z,29.40
2022-10-13T07:10:07.263Z,32.85
2022-10-13T07:13:09.773Z,29.85
2022-10-13T07:16:11.995Z,32.75
2022-10-13T07:19:14.359Z,27.48
2022-10-13T07:22:16.601Z,34.97
2022-10-13T07:25:19.047Z,31.58
2022-10-13T07:28:21.381Z,26.70
2022-10-13T07:31:25.339Z,27.70
2022-10-13T07:34:27.417Z,31.52
2022-10-13T07:37:29.802Z,24.75
2022-10-13T07:40:32.244Z,25.25
2022-10-13T07:43:35.205Z,27.50
2022-10-13T07:46:39.910Z,28.38
2022-10-13T07:49:42.241Z,23.17
2022-10-13T07:52:44.929Z,21.12
2022-10-13T07:55:47.556Z,19.73
2022-10-13T07:58:49.750Z,17.83
2022-10-13T08:01:52.145Z,20.40
2022-10-13T08:04:54.493Z,19.52
2022-10-13T08:07:58.464Z,19.58
2022-10-13T08:11:03.626Z,24.17
2022-10-13T08:14:06.951Z,23.60
2022-10-13T08:17:09.321Z,21.65
2022-10-13T08:20:11.634Z,22.15
2022-10-13T08:26:24.496Z,25.12
2022-10-13T08:29:26.923Z,20.00
2022-10-13T08:32:29.826Z,20.90
2022-10-13T08:35:34.862Z,20.00
2022-10-13T08:38:37.123Z,19.80
2022-10-13T08:41:44.047Z,17.62
2022-10-13T08:45:28.810Z,17.35
2022-10-13T08:48:21.602Z,19.52
2022-10-13T08:51:23.703Z,16.83
2022-10-13T08:54:26.530Z,17.95
2022-10-13T08:57:28.643Z,20.02
2022-10-13T09:00:31.060Z,17.80
2022-10-13T09:03:49.901Z,21.15
2022-10-13T09:07:17.384Z,19.50
2022-10-13T09:10:20.015Z,17.60
2022-10-13T09:13:22.452Z,16.10
2022-10-13T09:16:32.637Z,16.52
2022-10-13T09:19:36.617Z,14.23
2022-10-13T09:22:41.133Z,13.75
2022-10-13T09:25:49.908Z,17.83
2022-10-13T09:28:52.536Z,17.40
2022-10-13T09:32:23.807Z,13.85
2022-10-13T09:35:26.092Z,17.30
2022-10-13T09:38:29.372Z,16.37
2022-10-13T09:41:32.126Z,12.73
2022-10-13T09:44:34.578Z,15.50
2022-10-13T09:47:36.730Z,13.45
2022-10-13T09:50:49.599Z,16.23
2022-10-13T09:53:52.406Z,11.63
2022-10-13T09:57:16.652Z,13.73
2022-10-13T10:00:24.452Z,14.75
2022-10-13T10:03:34.571Z,14.07
2022-10-13T10:06:38.734Z,14.83
2022-10-13T10:09:46.701Z,15.75
2022-10-13T10:12:49.051Z,13.75
2022-10-13T10:15:57.484Z,14.80
2022-10-13T10:19:12.032Z,12.73
2022-10-13T10:22:36.109Z,13.62
2022-10-13T10:25:44.795Z,17.90
2022-10-13T10:29:17.245Z,13.38
2022-10-13T10:32:34.654Z,11.48
2022-10-13T10:35:49.378Z,13.80
2022-10-13T10:39:00.183Z,11.88
2022-10-13T10:42:07.983Z,14.55
2022-10-13T10:45:21.744Z,13.80
2022-10-13T10:48:25.457Z,15.50
2022-10-13T10:51:36.019Z,15.75
2022-10-13T10:54:52.463Z,17.30
2022-10-13T10:58:07.419Z,12.25
2022-10-13T11:01:25.476Z,15.35
2022-10-13T11:04:40.367Z,15.88
2022-10-13T11:07:43.054Z,13.18
2022-10-13T11:10:45.145Z,18.85
2022-10-13T11:14:02.721Z,19.12
2022-10-13T11:17:07.464Z,16.55
2022-10-13T11:20:21.778Z,15.45
2022-10-13T11:23:32.675Z,13.65
2022-10-13T11:26:42.914Z,18.58
2022-10-13T11:29:54.805Z,17.73
2022-10-13T11:32:57.380Z,17.30
2022-10-13T11:36:39.253Z,14.87
2022-10-13T11:39:59.518Z,17.05
2022-10-13T11:43:23.728Z,14.87
2022-10-13T11:47:00.567Z,14.18
2022-10-13T11:50:22.722Z,15.68
2022-10-13T11:53:32.455Z,12.95
2022-10-13T11:56:48.454Z,14.15
2022-10-13T11:59:55.711Z,13.10
2022-10-13T12:03:01.235Z,12.37
2022-10-13T12:06:22.346Z,14.57
2022-10-13T12:09:25.021Z,16.20
2022-10-13T12:12:27.697Z,17.60
2022-10-13T12:15:43.473Z,14.68
2022-10-13T12:18:45.922Z,16.12
2022-10-13T12:21:53.426Z,14.90
2022-10-13T12:25:00.481Z,17.00
2022-10-13T12:28:02.731Z,14.43
2022-10-13T12:34:45.345Z,16.45
2022-10-13T12:38:13.633Z,15.35
2022-10-13T12:41:24.707Z,12.25
2022-10-13T12:44:37.224Z,9.98
2022-10-13T12:47:59.977Z,12.43
2022-10-13T12:51:15.919Z,11.93
2022-10-13T12:54:31.747Z,13.90
2022-10-13T12:57:45.601Z,13.52
2022-10-13T13:01:18.220Z,10.73
2022-10-13T13:04:23.867Z,11.15
2022-10-13T13:07:37.941Z,10.85
2022-10-13T13:10:54.500Z,14.02
2022-10-13T13:14:34.641Z,13.10
2022-10-13T13:17:58.953Z,20.85
2022-10-13T13:21:12.636Z,12.73
2022-10-13T13:24:28.832Z,13.20
2022-10-13T13:27:41.087Z,14.23
2022-10-13T13:30:48.233Z,13.52
2022-10-13T13:34:00.533Z,15.63
2022-10-13T13:37:05.348Z,13.15
2022-10-13T13:40:15.237Z,15.40
2022-10-13T13:43:17.288Z,10.57
2022-10-13T13:46:23.369Z,13.18
2022-10-13T13:49:25.778Z,12.00
2022-10-13T13:52:28.125Z,17.05
2022-10-13T13:55:30.395Z,14.75
2022-10-13T13:58:32.730Z,18.50
2022-10-13T14:01:35.207Z,11.57
2022-10-13T14:04:37.594Z,17.02
2022-10-13T14:07:40.792Z,13.77
2022-10-13T14:10:43.467Z,14.75
2022-10-13T14:13:47.276Z,15.98
2022-10-13T14:16:51.423Z,13.05
2022-10-13T14:19:53.505Z,17.17
2022-10-13T14:22:55.978Z,11.30
2022-10-13T14:25:58.114Z,13.35
2022-10-13T14:29:00.905Z,13.10
2022-10-13T14:32:03.394Z,15.68
2022-10-13T14:35:06.647Z,14.60
2022-10-13T14:38:08.943Z,12.45
2022-10-13T14:41:12.024Z,19.77
2022-10-13T14:44:14.385Z,19.42
2022-10-13T14:47:20.274Z,20.05
2022-10-13T14:50:22.483Z,18.83
2022-10-13T14:53:33.675Z,17.77
2022-10-13T14:56:36.297Z,17.80
2022-10-13T14:59:38.654Z,11.02
2022-10-13T15:02:40.721Z,15.90
2022-10-13T15:05:43.038Z,17.20
2022-10-13T15:08:45.792Z,16.42
2022-10-13T15:11:48.191Z,12.18
2022-10-13T15:14:50.277Z,16.25
2022-10-13T15:17:52.682Z,16.00
2022-10-13T15:20:54.776Z,14.27
2022-10-13T15:23:57.378Z,12.80
2022-10-13T15:26:59.453Z,15.77
2022-10-13T15:30:04.542Z,18.35
2022-10-13T15:33:06.614Z,17.65
2022-10-13T15:36:08.947Z,14.45
2022-10-13T15:39:14.628Z,15.45
2022-10-13T15:42:16.965Z,15.35
2022-10-13T15:45:19.490Z,16.08
2022-10-13T15:48:22.073Z,16.37
2022-10-13T15:51:26.178Z,13.60
2022-10-13T15:54:28.677Z,13.90
2022-10-13T15:57:31.502Z,15.50
2022-10-13T16:00:33.887Z,13.80
2022-10-13T16:03:36.457Z,14.85
2022-10-13T16:06:38.869Z,15.07
2022-10-13T16:09:41.228Z,17.27
2022-10-13T16:12:49.246Z,19.95
2022-10-13T16:15:59.853Z,20.52
2022-10-13T16:19:01.924Z,20.37
2022-10-13T16:22:04.408Z,17.35
2022-10-13T16:25:07.100Z,19.98
2022-10-13T16:28:09.479Z,22.60
2022-10-13T16:31:14.234Z,18.02
2022-10-13T16:34:17.405Z,20.65
2022-10-13T16:37:20.074Z,20.80
2022-10-13T16:40:22.826Z,21.50
2022-10-13T16:43:24.911Z,17.33
2022-10-13T16:46:28.890Z,19.80
2022-10-13T16:49:31.683Z,19.42
2022-10-13T16:52:34.029Z,18.92
2022-10-13T16:55:39.471Z,19.27
2022-10-13T16:58:45.048Z,17.25
2022-10-13T17:01:48.199Z,18.45
2022-10-13T17:04:50.576Z,17.62
2022-10-13T17:07:52.704Z,21.12
2022-10-13T17:10:58.243Z,17.95
2022-10-13T17:14:01.145Z,24.52
2022-10-13T17:17:06.512Z,22.67
2022-10-13T17:20:09.553Z,22.45
2022-10-13T17:23:13.181Z,24.48
2022-10-13T17:26:17.173Z,22.05
2022-10-13T17:29:19.581Z,20.23
2022-10-13T17:32:22.228Z,22.75
2022-10-13T17:35:24.610Z,23.12
2022-10-13T17:38:26.719Z,22.55
2022-10-13T17:41:29.063Z,17.85
2022-10-13T17:44:31.291Z,16.87
2022-10-13T17:47:34.536Z,19.45
2022-10-13T17:50:37.670Z,22.52
2022-10-13T17:53:42.023Z,25.15
2022-10-13T17:56:47.821Z,22.87
2022-10-13T17:59:50.182Z,25.05
2022-10-13T18:02:52.311Z,24.63
2022-10-13T18:05:54.642Z,25.30
2022-10-13T18:08:56.963Z,28.58
2022-10-13T18:11:59.305Z,25.25
2022-10-13T18:15:01.437Z,21.23
2022-10-13T18:18:04.644Z,27.48
2022-10-13T18:21:08.237Z,24.77
2022-10-13T18:24:11.657Z,25.00
2022-10-13T18:27:13.752Z,27.40
2022-10-13T18:30:21.368Z,30.75
2022-10-13T18:33:24.359Z,26.85
2022-10-13T18:36:29.406Z,32.22
2022-10-13T18:39:34.064Z,26.35
2022-10-13T18:42:36.417Z,33.42
2022-10-13T18:45:38.484Z,22.60
2022-10-13T18:48:41.047Z,25.45
2022-10-13T18:51:43.121Z,28.23
2022-10-13T18:54:46.275Z,26.27
2022-10-13T18:57:48.337Z,27.40
2022-10-13T19:00:50.702Z,25.70
2022-10-13T19:03:53.951Z,25.60
2022-10-13T19:06:56.276Z,32.50
2022-10-13T19:09:58.367Z,30.27
2022-10-13T19:13:00.708Z,29.42
2022-10-13T19:16:04.676Z,26.23
2022-10-13T19:19:09.157Z,27.35
2022-10-13T19:22:11.470Z,31.20
2022-10-13T19:25:13.926Z,32.72
2022-10-13T19:28:16.614Z,29.20
2022-10-13T19:31:23.962Z,26.92
2022-10-13T19:34:26.408Z,28.70
2022-10-13T19:37:28.784Z,30.25
2022-10-13T19:40:30.845Z,30.55
2022-10-13T19:43:33.753Z,34.30
2022-10-13T19:46:38.284Z,34.85
2022-10-13T19:49:40.652Z,33.40
2022-10-13T19:52:43.040Z,34.00
2022-10-13T19:55:47.858Z,39.25
2022-10-13T19:58:51.396Z,38.97
2022-10-13T20:01:55.779Z,35.08
2022-10-13T20:04:58.142Z,37.05
2022-10-13T20:08:00.207Z,35.05
2022-10-13T20:11:07.708Z,39.63
2022-10-13T20:14:09.822Z,40.50
2022-10-13T20:17:14.321Z,37.72
2022-10-13T20:20:20.151Z,44.70
2022-10-13T20:23:25.125Z,39.17
2022-10-13T20:26:27.274Z,43.33
2022-10-13T20:29:29.685Z,39.88
2022-10-13T20:32:31.751Z,38.75
2022-10-13T20:35:34.079Z,43.45
2022-10-13T20:38:36.234Z,39.70
2022-10-13T20:41:38.601Z,39.47
2022-10-13T20:44:40.657Z,36.85
2022-10-13T20:47:42.985Z,38.25
2022-10-13T20:50:45.046Z,34.35
2022-10-13T20:53:48.436Z,33.70
2022-10-13T20:56:50.576Z,33.83
2022-10-13T20:59:52.900Z,39.70
2022-10-13T21:02:58.802Z,39.58
2022-10-13T21:06:06.383Z,32.75
2022-10-13T21:09:09.382Z,38.55
2022-10-13T21:12:12.450Z,32.35
2022-10-13T21:15:14.617Z,33.38
2022-10-13T21:18:16.953Z,36.47
2022-10-13T21:21:24.767Z,33.08
2022-10-13T21:24:27.090Z,31.35
2022-10-13T21:27:29.145Z,30.65
2022-10-13T21:30:32.354Z,31.33
2022-10-13T21:33:35.983Z,31.58
2022-10-13T21:36:42.347Z,36.22
2022-10-13T21:39:47.634Z,29.58
2022-10-13T21:42:50.199Z,32.08
2022-10-13T21:45:52.287Z,29.00
2022-10-13T21:48:57.058Z,34.75
2022-10-13T21:51:59.645Z,35.40
2022-10-13T21:55:02.992Z,32.28
2022-10-13T21:58:05.557Z,36.42
2022-10-13T22:01:08.319Z,33.92
2022-10-13T22:04:13.385Z,32.85
2022-10-13T22:07:15.464Z,34.40
2022-10-13T22:10:17.970Z,35.58
2022-10-13T22:13:20.062Z,30.83
2022-10-13T22:16:29.075Z,35.97
2022-10-13T22:19:31.154Z,34.53
2022-10-13T22:22:33.507Z,29.95
2022-10-13T22:25:35.589Z,28.33
2022-10-13T22:28:38.982Z,37.03
2022-10-13T22:31:41.135Z,32.92
2022-10-13T22:34:44.726Z,33.72
2022-10-13T22:37:46.791Z,29.73
2022-10-13T22:40:49.131Z,26.77
2022-10-13T22:43:53.213Z,32.78
2022-10-13T22:46:55.554Z,33.78
2022-10-13T22:49:57.622Z,32.83
2022-10-13T22:52:59.971Z,32.97
2022-10-13T22:56:08.801Z,31.52
2022-10-13T22:59:13.704Z,33.00
2022-10-13T23:02:15.795Z,30.30
2022-10-13T23:05:18.169Z,36.78
2022-10-13T23:08:20.236Z,34.65
2022-10-13T23:11:22.977Z,29.45
2022-10-13T23:14:25.066Z,33.42
2022-10-13T23:17:27.428Z,37.97
2022-10-13T23:20:30.170Z,35.17
2022-10-13T23:23:33.256Z,32.33
2022-10-13T23:26:36.021Z,33.47
2022-10-13T23:29:38.364Z,31.33
2022-10-13T23:32:40.464Z,32.97
2022-10-13T23:35:42.790Z,29.20
2022-10-13T23:38:45.448Z,29.55
2022-10-13T23:41:47.828Z,29.15
2022-10-13T23:44:51.460Z,32.15
2022-10-13T23:47:53.783Z,30.55
2022-10-13T23:50:57.529Z,31.27
2022-10-13T23:53:59.883Z,32.95
2022-10-13T23:57:01.934Z,34.17
